Historique des mesures à Cassis (13260), France
Quotidien Résumé Fevrier 4, 2018 Unités:  Métrique    US   Métrique/US
« Précédent (Jour)
Suivant (Jour) »
Quotidien Hebdomadaire Mensuel Annuel Période au choix
  Maximum: Minimum: Moyenne:
Température: TemperatureC °C 4.0 °C 7.4 °C
Point de rosée: DewpointC °C -3.6 °C -0.7 °C
Humidité: Humidity % 48 % 53 %
Vitesse du vent: 0 km/h 0 km/h 2.3 km/h
Rafales: 0 km/h - -
Vent:- - ESE
Pression: PressurehPa hPa 1005.3 hPa -
Précipitations: 0.0 mm    
Historical Graphs
 
 
Mesures pour : Fevrier 4, 2018
Heure Temperature Point de rosée Pression Vent Vitesse du vent Rafales Humidité Pluie (par heure) Conditions
TemperatureC °C DewpointC °C PressurehPa hPa Calm     Humidity % HourlyPrecipMM mm SoftwareType W/m2
00:12 6.2 °C -2.7 °C 1005.3 hPa North 12.2 km/h 12.2 km/h 53 % 0.0 mm open2300-1.11 W/m2
01:12 6.1 °C -3.1 °C 1006.0 hPa Calm     52 % 0.0 mm open2300-1.11 W/m2
02:12 5.5 °C -2.9 °C 1006.0 hPa Calm     55 % 0.0 mm open2300-1.11 W/m2
03:12 5.4 °C -3.2 °C 1006.0 hPa NNW 2.3 km/h 2.3 km/h 54 % 0.0 mm open2300-1.11 W/m2
04:12 5.6 °C -3.5 °C 1006.3 hPa Calm     52 % 0.0 mm open2300-1.11 W/m2
05:12 4.8 °C -3.3 °C 1007.0 hPa Calm   4.7 km/h 56 % 0.0 mm open2300-1.11 W/m2
06:12 5.3 °C -3.3 °C 1007.0 hPa Calm   4.2 km/h 54 % 0.0 mm open2300-1.11 W/m2
07:12 4.2 °C -3.4 °C 1007.7 hPa Calm     58 % 0.0 mm open2300-1.11 W/m2
08:12 4.0 °C -3.6 °C 1008.4 hPa Calm     58 % 0.0 mm open2300-1.11 W/m2
09:12 6.1 °C -2.3 °C 1008.7 hPa ESE 4.2 km/h 4.2 km/h 55 % 0.0 mm open2300-1.11 W/m2
10:12 7.0 °C -2.7 °C 1009.4 hPa NNE 5.1 km/h 10.9 km/h 50 % 0.0 mm open2300-1.11 W/m2
12:12 9.8 °C -0.7 °C 1009.7 hPa NE 6.9 km/h 6.9 km/h 48 % 0.0 mm open2300-1.11 W/m2
13:12 10.9 °C 0.9 °C 1009.4 hPa SW 19.2 km/h 19.2 km/h 50 % 0.0 mm open2300-1.11 W/m2
14:12 11.1 °C 1.3 °C 1009.0 hPa Calm   5.1 km/h 51 % 0.0 mm open2300-1.11 W/m2
15:12 10.9 °C 1.4 °C 1009.4 hPa Calm   11.6 km/h 52 % 0.0 mm open2300-1.11 W/m2
16:12 10.9 °C 1.4 °C 1009.4 hPa ESE 2.9 km/h 2.9 km/h 52 % 0.0 mm open2300-1.11 W/m2
17:12 10.5 °C 1.6 °C 1009.7 hPa Calm     54 % 0.0 mm open2300-1.11 W/m2
18:12 9.2 °C 1.6 °C 1010.0 hPa Calm     59 % 0.0 mm open2300-1.11 W/m2
19:12 8.6 °C 1.5 °C 1010.7 hPa Calm     61 % 0.0 mm open2300-1.11 W/m2
20:12 8.3 °C 1.2 °C 1011.1 hPa Calm     61 % 0.0 mm open2300-1.11 W/m2
21:12 8.8 °C 1.5 °C 1010.7 hPa Calm     60 % 0.0 mm open2300-1.11 W/m2
22:12 8.6 °C 1.9 °C 1011.1 hPa Calm     63 % 0.0 mm open2300-1.11 W/m2
23:12 9.1 °C 3.3 °C 1011.1 hPa East 2.3 km/h 6.9 km/h 67 % 0.0 mm open2300-1.11 W/m2
Observations météo à CASSIS
WU-History script by Weather Underground - 1 mb